Time;durP1;ratioP1;P1;durP2;ratioP2;P2;SDS_P1;SDS_P2;PMS_P1;PMS_P2;Temp;Humidity;BMP_temperature;BMP_pressure;BME280_temperature;BME280_humidity;BME280_pressure;Samples;Min_cycle;Max_cycle;Signal;HPM_P1;HPM_P2
2022/01/22 00:00:07;;;;;;;2.78;1.33;;;;;;;;;;5042465;28;20020;-53
2022/01/22 00:02:33;;;;;;;2.90;1.30;;;;;;;;;;5028466;28;20028;-57
2022/01/22 00:04:58;;;;;;;2.03;1.10;;;;;;;;;;5039771;28;20037;-54
2022/01/22 00:07:23;;;;;;;1.87;1.00;;;;;;;;;;5042491;28;20024;-54
2022/01/22 00:09:58;;;;;;;2.03;1.00;;;;;;;;;;5027101;28;20272;-53
2022/01/22 00:12:54;;;;;;;2.33;1.30;;;;;;;;;;5027504;28;20276;-53
2022/01/22 00:15:18;;;;;;;2.60;1.10;;;;;;;;;;5041337;28;20024;-56
2022/01/22 00:17:44;;;;;;;2.17;1.17;;;;;;;;;;5042032;28;20021;-53
2022/01/22 00:20:09;;;;;;;2.15;1.20;;;;;;;;;;5042311;28;20032;-52
2022/01/22 00:22:36;;;;;;;2.67;1.33;;;;;;;;;;5028205;28;20020;-56
2022/01/22 00:25:02;;;;;;;2.17;1.15;;;;;;;;;;5039426;28;20563;-53
2022/01/22 00:27:28;;;;;;;2.13;1.27;;;;;;;;;;5041735;28;20135;-53
2022/01/22 00:29:53;;;;;;;2.53;1.60;;;;;;;;;;5025444;28;20018;-56
2022/01/22 00:32:18;;;;;;;2.53;1.40;;;;;;;;;;5025337;28;20057;-55
2022/01/22 00:34:43;;;;;;;2.30;1.27;;;;;;;;;;5042138;28;20032;-54
2022/01/22 00:37:09;;;;;;;1.80;1.10;;;;;;;;;;5041605;28;20275;-54
2022/01/22 00:39:34;;;;;;;2.37;1.27;;;;;;;;;;5041745;28;20864;-53
2022/01/22 00:42:00;;;;;;;1.88;1.10;;;;;;;;;;5032534;28;20911;-53
2022/01/22 00:44:25;;;;;;;2.38;1.10;;;;;;;;;;5034316;28;20120;-53
2022/01/22 00:46:51;;;;;;;2.20;1.20;;;;;;;;;;5041646;28;20063;-55
2022/01/22 00:49:16;;;;;;;2.75;1.30;;;;;;;;;;5035217;28;20068;-53
2022/01/22 00:51:41;;;;;;;2.45;1.20;;;;;;;;;;4990621;28;20033;-53
2022/01/22 00:54:07;;;;;;;2.00;1.10;;;;;;;;;;5031391;28;20409;-54
2022/01/22 00:56:32;;;;;;;1.90;1.27;;;;;;;;;;5041526;28;20419;-53
2022/01/22 00:58:57;;;;;;;1.77;1.27;;;;;;;;;;5041561;28;20556;-54
2022/01/22 01:01:22;;;;;;;3.77;1.23;;;;;;;;;;5037611;28;20112;-53
2022/01/22 01:03:48;;;;;;;2.42;1.15;;;;;;;;;;5028725;28;20117;-52
2022/01/22 01:06:13;;;;;;;2.37;1.20;;;;;;;;;;5023358;28;20094;-53
2022/01/22 01:08:38;;;;;;;2.40;1.30;;;;;;;;;;5041649;28;20287;-53
2022/01/22 01:11:04;;;;;;;1.85;1.13;;;;;;;;;;5008517;28;20586;-54
2022/01/22 01:13:33;;;;;;;2.65;1.50;;;;;;;;;;5041459;28;20032;-53
2022/01/22 01:34:39;;;;;;;1.73;1.00;;;;;;;;;;5045912;28;20426;-54
2022/01/22 01:37:05;;;;;;;1.58;0.90;;;;;;;;;;5045372;28;20426;-52
2022/01/22 01:39:33;;;;;;;2.73;1.30;;;;;;;;;;5045152;28;20048;-52
2022/01/22 01:44:23;;;;;;;2.13;1.20;;;;;;;;;;5037077;28;20144;-53
2022/01/22 01:46:50;;;;;;;2.50;1.20;;;;;;;;;;5045936;28;20307;-55
2022/01/22 01:49:16;;;;;;;1.70;1.00;;;;;;;;;;5041278;28;20028;-53
2022/01/22 01:51:41;;;;;;;1.92;1.10;;;;;;;;;;5017765;28;20017;-53
2022/01/22 01:59:16;;;;;;;2.20;1.00;;;;;;;;;;5044916;28;20310;-53
2022/01/22 02:01:41;;;;;;;2.75;1.25;;;;;;;;;;5038942;28;20018;-53
2022/01/22 02:04:09;;;;;;;2.28;1.10;;;;;;;;;;5034036;28;20048;-52
2022/01/22 02:06:34;;;;;;;2.28;0.90;;;;;;;;;;5045137;28;20037;-53
2022/01/22 02:09:00;;;;;;;1.50;0.95;;;;;;;;;;5043776;28;20075;-53
2022/01/22 02:11:27;;;;;;;1.70;0.98;;;;;;;;;;4987836;28;20025;-54
2022/01/22 02:24:49;;;;;;;1.77;1.02;;;;;;;;;;5039942;28;20537;-52
2022/01/22 02:27:15;;;;;;;2.55;1.17;;;;;;;;;;5026089;28;20082;-53
2022/01/22 02:29:40;;;;;;;1.23;0.88;;;;;;;;;;5032751;28;20066;-53
2022/01/22 02:34:56;;;;;;;1.70;0.90;;;;;;;;;;5032956;28;20294;-52
2022/01/22 02:37:23;;;;;;;2.40;1.25;;;;;;;;;;5026311;28;20399;-53
2022/01/22 02:42:27;;;;;;;1.48;0.80;;;;;;;;;;5032425;28;20029;-53
2022/01/22 02:44:53;;;;;;;1.77;0.82;;;;;;;;;;5040058;28;20601;-52
2022/01/22 02:47:19;;;;;;;2.10;0.90;;;;;;;;;;5044039;28;20064;-53
2022/01/22 02:49:44;;;;;;;2.15;1.17;;;;;;;;;;5031191;28;20037;-52
2022/01/22 02:52:10;;;;;;;2.17;0.90;;;;;;;;;;5023675;28;20471;-53
2022/01/22 02:54:35;;;;;;;2.17;1.25;;;;;;;;;;5043459;28;20028;-53
2022/01/22 02:57:01;;;;;;;2.10;1.00;;;;;;;;;;5050367;28;20021;-52
2022/01/22 02:59:27;;;;;;;1.98;1.10;;;;;;;;;;5045123;28;20526;-53
2022/01/22 03:01:52;;;;;;;1.98;1.00;;;;;;;;;;5036606;28;20029;-55
2022/01/22 03:04:18;;;;;;;1.60;0.90;;;;;;;;;;5034700;28;20098;-55
2022/01/22 03:06:43;;;;;;;2.47;1.10;;;;;;;;;;5043770;28;20314;-55
2022/01/22 03:09:11;;;;;;;1.85;0.90;;;;;;;;;;5040886;28;20037;-56
2022/01/22 03:12:11;;;;;;;1.65;0.93;;;;;;;;;;5014343;28;20102;-55
2022/01/22 03:17:12;;;;;;;1.90;1.00;;;;;;;;;;5043699;28;20410;-55
2022/01/22 03:22:19;;;;;;;1.70;0.90;;;;;;;;;;5033934;28;20023;-56
2022/01/22 03:27:30;;;;;;;1.85;1.00;;;;;;;;;;5043531;28;20090;-56
2022/01/22 03:29:56;;;;;;;1.80;0.90;;;;;;;;;;5028056;28;20030;-56
2022/01/22 03:32:22;;;;;;;2.17;0.80;;;;;;;;;;5026225;28;20032;-56
2022/01/22 03:35:00;;;;;;;1.60;0.70;;;;;;;;;;5043464;28;20028;-57
2022/01/22 03:37:26;;;;;;;1.70;0.80;;;;;;;;;;5043262;28;20031;-57
2022/01/22 03:39:52;;;;;;;1.45;0.80;;;;;;;;;;5043217;28;20426;-57
2022/01/22 03:42:18;;;;;;;1.90;1.00;;;;;;;;;;5032409;28;20033;-54
2022/01/22 03:44:43;;;;;;;2.30;0.80;;;;;;;;;;5037648;28;20037;-55
2022/01/22 03:47:08;;;;;;;2.03;0.90;;;;;;;;;;5008945;28;20030;-55
2022/01/22 03:49:33;;;;;;;1.60;0.90;;;;;;;;;;5018330;28;20147;-53
2022/01/22 03:51:58;;;;;;;1.42;0.80;;;;;;;;;;5019764;28;20028;-56
2022/01/22 03:54:24;;;;;;;1.53;0.80;;;;;;;;;;5042998;28;20683;-56
2022/01/22 03:56:51;;;;;;;1.88;0.90;;;;;;;;;;5043114;28;20479;-55
2022/01/22 03:59:16;;;;;;;1.70;0.90;;;;;;;;;;5042544;28;20043;-55
2022/01/22 04:04:24;;;;;;;2.47;0.85;;;;;;;;;;5033440;28;20056;-56
2022/01/22 04:09:29;;;;;;;1.63;0.70;;;;;;;;;;5036014;28;20010;-52
2022/01/22 04:11:55;;;;;;;1.75;0.90;;;;;;;;;;5017772;28;20028;-53
2022/01/22 04:14:25;;;;;;;1.67;1.00;;;;;;;;;;5042640;28;20029;-52
2022/01/22 04:24:56;;;;;;;1.50;0.70;;;;;;;;;;5038436;28;20063;-52
2022/01/22 04:27:26;;;;;;;2.00;0.85;;;;;;;;;;5042374;28;20068;-53
2022/01/22 04:29:52;;;;;;;1.85;0.90;;;;;;;;;;5028447;28;20030;-52
2022/01/22 04:32:18;;;;;;;1.52;0.70;;;;;;;;;;5023574;28;20020;-53
2022/01/22 04:34:44;;;;;;;1.90;0.90;;;;;;;;;;5042020;28;20036;-52
2022/01/22 04:37:09;;;;;;;2.25;1.10;;;;;;;;;;5042149;28;20024;-54
2022/01/22 04:39:36;;;;;;;1.60;0.90;;;;;;;;;;5041986;28;20411;-56
2022/01/22 04:42:01;;;;;;;1.40;0.70;;;;;;;;;;5034018;28;20017;-55
2022/01/22 04:44:31;;;;;;;1.50;0.60;;;;;;;;;;5033733;28;20033;-56
2022/01/22 04:47:14;;;;;;;;;;;;;;;;;;5042408;28;20116;-55
2022/01/22 04:54:59;;;;;;;1.17;0.60;;;;;;;;;;5041904;28;20048;-56
2022/01/22 04:57:25;;;;;;;1.35;0.55;;;;;;;;;;5041514;28;20021;-56
2022/01/22 04:59:50;;;;;;;1.67;0.73;;;;;;;;;;5041738;28;20027;-55
2022/01/22 05:02:15;;;;;;;1.57;0.67;;;;;;;;;;5031689;28;20075;-55
2022/01/22 05:04:41;;;;;;;1.10;0.50;;;;;;;;;;5035024;28;20290;-54
2022/01/22 05:07:06;;;;;;;1.80;0.70;;;;;;;;;;5041552;28;20025;-56
2022/01/22 05:09:31;;;;;;;1.40;0.70;;;;;;;;;;5033857;28;20265;-54
2022/01/22 05:11:57;;;;;;;1.07;0.40;;;;;;;;;;5016524;28;20279;-54
2022/01/22 05:14:23;;;;;;;1.92;0.82;;;;;;;;;;5041416;28;20866;-57
2022/01/22 05:16:49;;;;;;;1.30;0.63;;;;;;;;;;5041158;28;20060;-53
2022/01/22 05:19:21;;;;;;;1.42;0.70;;;;;;;;;;5036919;28;20034;-56
2022/01/22 05:21:49;;;;;;;1.88;0.80;;;;;;;;;;5014220;28;20026;-54
2022/01/22 05:24:19;;;;;;;1.38;0.60;;;;;;;;;;5018971;28;20017;-54
2022/01/22 05:27:12;;;;;;;;;;;;;;;;;;5021097;28;20022;-53
2022/01/22 05:37:32;;;;;;;1.70;0.68;;;;;;;;;;5020298;28;20025;-55
2022/01/22 05:39:57;;;;;;;1.65;0.60;;;;;;;;;;5002145;28;20440;-54
2022/01/22 05:42:23;;;;;;;0.83;0.50;;;;;;;;;;5019626;28;20033;-54
2022/01/22 05:44:48;;;;;;;1.60;0.70;;;;;;;;;;5017098;28;20276;-54
2022/01/22 05:47:19;;;;;;;1.70;0.63;;;;;;;;;;5020291;28;20264;-53
2022/01/22 05:49:45;;;;;;;1.52;0.77;;;;;;;;;;5019866;28;20272;-53
2022/01/22 05:52:12;;;;;;;1.47;0.60;;;;;;;;;;5019121;28;20018;-55
2022/01/22 05:59:58;;;;;;;2.55;0.80;;;;;;;;;;5020834;28;20079;-55
2022/01/22 06:02:24;;;;;;;1.23;0.67;;;;;;;;;;5020929;28;20026;-53
2022/01/22 06:04:49;;;;;;;1.10;0.63;;;;;;;;;;5035117;28;20292;-54
2022/01/22 06:07:14;;;;;;;1.17;0.70;;;;;;;;;;5040878;28;20016;-54
2022/01/22 06:09:52;;;;;;;1.85;0.80;;;;;;;;;;5032491;28;20030;-53
2022/01/22 06:12:28;;;;;;;1.42;0.77;;;;;;;;;;5006940;28;20021;-53
2022/01/22 06:14:53;;;;;;;2.10;0.90;;;;;;;;;;5034531;28;20040;-56
2022/01/22 06:17:18;;;;;;;1.60;0.95;;;;;;;;;;5037753;28;20026;-55
2022/01/22 06:19:44;;;;;;;1.95;0.60;;;;;;;;;;5020383;28;20087;-55
2022/01/22 06:22:09;;;;;;;2.43;0.80;;;;;;;;;;5036162;28;20491;-54
2022/01/22 06:24:34;;;;;;;1.87;0.60;;;;;;;;;;5018028;28;20275;-54
2022/01/22 06:26:59;;;;;;;2.17;0.75;;;;;;;;;;5020698;28;20268;-53
2022/01/22 06:29:25;;;;;;;1.57;1.00;;;;;;;;;;5021025;28;20157;-52
2022/01/22 06:31:50;;;;;;;1.37;0.90;;;;;;;;;;5023529;28;20076;-53
2022/01/22 06:34:15;;;;;;;1.70;0.80;;;;;;;;;;5018784;28;20025;-54
2022/01/22 06:36:40;;;;;;;1.30;0.60;;;;;;;;;;5016458;28;20078;-54
2022/01/22 06:39:17;;;;;;;2.00;0.70;;;;;;;;;;5017810;28;20037;-52
2022/01/22 06:41:45;;;;;;;1.60;0.73;;;;;;;;;;5021968;28;20024;-52
2022/01/22 06:44:34;;;;;;;1.95;0.80;;;;;;;;;;5019656;28;20041;-53
2022/01/22 06:47:00;;;;;;;1.25;0.75;;;;;;;;;;5018981;28;20021;-52
2022/01/22 06:49:25;;;;;;;1.33;0.70;;;;;;;;;;5015170;28;21148;-53
2022/01/22 06:51:51;;;;;;;2.00;0.87;;;;;;;;;;5022323;28;20829;-53
2022/01/22 06:54:17;;;;;;;1.08;0.55;;;;;;;;;;5015650;28;20286;-53
2022/01/22 06:56:42;;;;;;;1.33;0.80;;;;;;;;;;5014542;28;20111;-52
2022/01/22 06:59:11;;;;;;;1.52;0.88;;;;;;;;;;5025378;28;20038;-52
2022/01/22 07:01:36;;;;;;;1.58;0.60;;;;;;;;;;5021328;28;20224;-52
2022/01/22 07:04:02;;;;;;;2.03;0.73;;;;;;;;;;5025454;28;20495;-52
2022/01/22 07:06:27;;;;;;;2.50;0.90;;;;;;;;;;5025580;28;20029;-56
2022/01/22 07:08:52;;;;;;;1.73;0.70;;;;;;;;;;5028181;28;20299;-52
2022/01/22 07:11:17;;;;;;;2.05;0.80;;;;;;;;;;5023986;28;20110;-54
2022/01/22 07:13:43;;;;;;;1.10;0.70;;;;;;;;;;5026518;28;20017;-53
2022/01/22 07:16:08;;;;;;;2.08;0.90;;;;;;;;;;5025160;28;20164;-53
2022/01/22 07:18:34;;;;;;;1.80;0.90;;;;;;;;;;5025081;28;20033;-52
2022/01/22 07:21:03;;;;;;;1.80;0.98;;;;;;;;;;5023894;28;20272;-54
2022/01/22 07:25:59;;;;;;;1.20;0.70;;;;;;;;;;5010804;28;20127;-54
2022/01/22 07:28:24;;;;;;;1.30;0.63;;;;;;;;;;5021417;28;20063;-55
2022/01/22 07:30:49;;;;;;;2.13;0.90;;;;;;;;;;5006970;28;20025;-53
2022/01/22 07:33:15;;;;;;;1.20;0.70;;;;;;;;;;5024935;28;20280;-54
2022/01/22 07:35:40;;;;;;;1.30;0.75;;;;;;;;;;5005841;28;20445;-53
2022/01/22 07:38:05;;;;;;;2.13;1.02;;;;;;;;;;5013227;28;20405;-55
2022/01/22 07:40:31;;;;;;;1.83;0.75;;;;;;;;;;5009400;28;20462;-55
2022/01/22 07:42:56;;;;;;;1.70;0.73;;;;;;;;;;5012273;28;20030;-55
2022/01/22 07:45:21;;;;;;;2.42;1.05;;;;;;;;;;5025481;28;20260;-58
2022/01/22 07:47:46;;;;;;;1.17;0.90;;;;;;;;;;5033630;28;20449;-56
2022/01/22 07:50:12;;;;;;;1.80;0.80;;;;;;;;;;5030550;28;20268;-56
2022/01/22 07:52:37;;;;;;;1.20;0.70;;;;;;;;;;5034581;28;20299;-57
2022/01/22 07:55:03;;;;;;;1.53;0.87;;;;;;;;;;5025286;28;20907;-56
2022/01/22 07:57:28;;;;;;;2.05;0.75;;;;;;;;;;5009207;28;20318;-56
2022/01/22 07:59:54;;;;;;;1.30;0.70;;;;;;;;;;5042553;28;20021;-57
2022/01/22 08:02:19;;;;;;;1.73;0.80;;;;;;;;;;5033156;28;20272;-56
2022/01/22 08:04:44;;;;;;;2.45;1.17;;;;;;;;;;5035020;28;20061;-56
2022/01/22 08:07:09;;;;;;;1.70;0.90;;;;;;;;;;5027957;28;20037;-56
2022/01/22 08:09:35;;;;;;;2.13;0.90;;;;;;;;;;5020732;28;20268;-57
2022/01/22 08:12:00;;;;;;;4.33;0.90;;;;;;;;;;5023369;28;20411;-57
2022/01/22 08:14:25;;;;;;;1.38;0.70;;;;;;;;;;5041233;28;20021;-56
2022/01/22 08:16:50;;;;;;;2.13;0.80;;;;;;;;;;5024983;28;20429;-56
2022/01/22 08:19:16;;;;;;;1.63;0.73;;;;;;;;;;5026848;28;20304;-57
2022/01/22 08:21:41;;;;;;;2.08;0.90;;;;;;;;;;5036823;28;20261;-56
2022/01/22 08:24:07;;;;;;;1.55;0.90;;;;;;;;;;5028485;28;20024;-56
2022/01/22 08:26:37;;;;;;;2.30;0.80;;;;;;;;;;5041344;28;20110;-57
2022/01/22 08:29:03;;;;;;;1.52;0.70;;;;;;;;;;5041321;28;20029;-57
2022/01/22 08:36:22;;;;;;;2.53;0.90;;;;;;;;;;5002648;28;20026;-57
2022/01/22 08:38:47;;;;;;;1.70;0.80;;;;;;;;;;5015093;28;20040;-55
2022/01/22 08:41:12;;;;;;;2.28;1.05;;;;;;;;;;5021448;28;20306;-56
2022/01/22 08:43:37;;;;;;;1.50;0.80;;;;;;;;;;5025343;28;20368;-55
2022/01/22 08:46:03;;;;;;;2.63;0.87;;;;;;;;;;5041759;28;20268;-57
2022/01/22 08:48:28;;;;;;;1.63;0.70;;;;;;;;;;5041786;28;20295;-56
2022/01/22 08:50:54;;;;;;;3.27;0.80;;;;;;;;;;5027911;28;20409;-55
2022/01/22 08:53:19;;;;;;;2.63;0.90;;;;;;;;;;5038658;28;20029;-55
2022/01/22 08:55:45;;;;;;;2.60;0.93;;;;;;;;;;5041428;28;20044;-56
2022/01/22 08:58:10;;;;;;;2.70;1.00;;;;;;;;;;5033500;28;20044;-56
2022/01/22 09:00:37;;;;;;;2.23;1.07;;;;;;;;;;5021492;28;20654;-56
2022/01/22 09:03:02;;;;;;;3.15;1.00;;;;;;;;;;5021555;28;20294;-56
2022/01/22 09:05:33;;;;;;;2.05;1.02;;;;;;;;;;5039814;28;20131;-56
2022/01/22 09:07:59;;;;;;;2.45;0.80;;;;;;;;;;5041325;28;20431;-56
2022/01/22 09:10:24;;;;;;;2.57;1.00;;;;;;;;;;5031472;28;20444;-56
2022/01/22 09:12:49;;;;;;;2.22;1.00;;;;;;;;;;5034365;28;20271;-55
2022/01/22 09:15:14;;;;;;;1.83;0.90;;;;;;;;;;5041152;28;20962;-56
2022/01/22 09:17:43;;;;;;;2.60;1.07;;;;;;;;;;5037620;28;20482;-56
2022/01/22 09:20:13;;;;;;;2.50;0.90;;;;;;;;;;5028938;28;20287;-56
2022/01/22 09:22:38;;;;;;;2.60;0.95;;;;;;;;;;5030001;28;20036;-55
2022/01/22 09:25:04;;;;;;;2.67;1.17;;;;;;;;;;5022327;28;20350;-57
2022/01/22 09:27:29;;;;;;;2.35;1.23;;;;;;;;;;5023143;28;20260;-57
2022/01/22 09:29:54;;;;;;;2.20;1.10;;;;;;;;;;5020482;28;20018;-57
2022/01/22 09:32:20;;;;;;;2.60;1.20;;;;;;;;;;5021065;28;20308;-57
2022/01/22 09:34:45;;;;;;;3.22;1.25;;;;;;;;;;5034129;28;20417;-56
2022/01/22 09:37:10;;;;;;;3.43;1.07;;;;;;;;;;5041266;28;20021;-56
2022/01/22 09:39:35;;;;;;;2.33;1.10;;;;;;;;;;5021688;28;20377;-57
2022/01/22 09:42:01;;;;;;;2.13;1.10;;;;;;;;;;5003648;28;20278;-57
2022/01/22 09:44:26;;;;;;;1.88;1.10;;;;;;;;;;5031077;28;20025;-57
2022/01/22 09:46:51;;;;;;;2.63;1.40;;;;;;;;;;5042963;28;20178;-57
2022/01/22 09:49:16;;;;;;;3.03;1.07;;;;;;;;;;5026764;28;20483;-56
2022/01/22 09:51:42;;;;;;;3.70;1.03;;;;;;;;;;5028942;28;20491;-55
2022/01/22 09:54:07;;;;;;;2.40;0.98;;;;;;;;;;5044867;28;20522;-55
2022/01/22 09:56:33;;;;;;;2.60;1.00;;;;;;;;;;5044895;28;20054;-56
2022/01/22 09:58:59;;;;;;;1.77;1.02;;;;;;;;;;5030742;28;20048;-56
2022/01/22 10:01:25;;;;;;;2.08;1.13;;;;;;;;;;5041153;28;20451;-55
2022/01/22 10:03:51;;;;;;;2.13;0.98;;;;;;;;;;5029744;28;20057;-55
2022/01/22 10:06:20;;;;;;;2.10;0.90;;;;;;;;;;5044758;28;20467;-56
2022/01/22 10:08:45;;;;;;;2.08;1.15;;;;;;;;;;5039755;28;20582;-56
2022/01/22 10:11:26;;;;;;;2.17;1.00;;;;;;;;;;5024216;28;20125;-55
2022/01/22 10:13:52;;;;;;;1.88;1.00;;;;;;;;;;5025742;28;20020;-55
2022/01/22 10:16:28;;;;;;;1.98;0.95;;;;;;;;;;5026493;28;20507;-55
2022/01/22 10:19:09;;;;;;;1.65;0.95;;;;;;;;;;5006266;28;20044;-53
2022/01/22 10:21:34;;;;;;;2.50;0.90;;;;;;;;;;5026406;28;20021;-55
2022/01/22 10:24:18;;;;;;;2.67;1.20;;;;;;;;;;5026557;28;20814;-56
2022/01/22 10:26:43;;;;;;;2.60;1.30;;;;;;;;;;5026594;28;20037;-56
2022/01/22 10:29:09;;;;;;;2.40;1.10;;;;;;;;;;5026301;28;20036;-57
2022/01/22 10:31:41;;;;;;;2.10;0.90;;;;;;;;;;5024434;28;20670;-56
2022/01/22 10:34:10;;;;;;;2.30;1.20;;;;;;;;;;5025190;28;20457;-54
2022/01/22 10:36:35;;;;;;;3.25;1.17;;;;;;;;;;5025122;28;20030;-57
2022/01/22 10:39:00;;;;;;;1.73;1.00;;;;;;;;;;5005668;28;20129;-56
2022/01/22 10:41:33;;;;;;;3.08;1.15;;;;;;;;;;5024927;28;20017;-55
2022/01/22 10:44:00;;;;;;;3.55;1.13;;;;;;;;;;5025638;28;20021;-56
2022/01/22 10:46:46;;;;;;;2.97;0.90;;;;;;;;;;5025616;28;20494;-55
2022/01/22 10:49:12;;;;;;;2.42;1.15;;;;;;;;;;5025088;28;20030;-56
2022/01/22 10:51:51;;;;;;;2.50;1.00;;;;;;;;;;5013794;28;20491;-58
2022/01/22 10:54:26;;;;;;;2.38;1.10;;;;;;;;;;5024291;28;20014;-56
2022/01/22 10:56:51;;;;;;;1.92;0.90;;;;;;;;;;5022832;28;20025;-57
2022/01/22 10:59:17;;;;;;;2.83;1.15;;;;;;;;;;5040227;28;20083;-55
2022/01/22 11:01:46;;;;;;;2.20;1.05;;;;;;;;;;5040246;28;20435;-57
2022/01/22 11:04:12;;;;;;;2.90;1.40;;;;;;;;;;5030924;28;20045;-55
2022/01/22 11:06:38;;;;;;;2.47;1.20;;;;;;;;;;5043656;28;20047;-56
2022/01/22 11:09:05;;;;;;;2.60;1.08;;;;;;;;;;5043568;28;20041;-56
2022/01/22 11:11:32;;;;;;;2.42;1.52;;;;;;;;;;5026163;28;20025;-55
2022/01/22 11:13:57;;;;;;;8.00;6.80;;;;;;;;;;5028528;28;20110;-56
2022/01/22 11:16:22;;;;;;;10.40;9.30;;;;;;;;;;5025258;28;20083;-55
2022/01/22 11:18:48;;;;;;;11.93;9.60;;;;;;;;;;5005053;28;20033;-55
2022/01/22 11:21:14;;;;;;;9.75;8.82;;;;;;;;;;5005375;28;20268;-56
2022/01/22 11:23:39;;;;;;;8.88;7.90;;;;;;;;;;5005814;28;20009;-56
2022/01/22 11:26:05;;;;;;;8.63;7.80;;;;;;;;;;5022723;28;20112;-55
2022/01/22 11:28:30;;;;;;;7.10;6.25;;;;;;;;;;5005254;28;20272;-55
2022/01/22 11:30:56;;;;;;;6.90;6.20;;;;;;;;;;5023462;28;20029;-56
2022/01/22 11:33:21;;;;;;;6.82;5.95;;;;;;;;;;5011625;28;20276;-55
2022/01/22 11:35:48;;;;;;;6.40;5.10;;;;;;;;;;5003805;28;19998;-56
2022/01/22 11:38:15;;;;;;;5.75;5.25;;;;;;;;;;5002237;28;20124;-56
2022/01/22 11:40:41;;;;;;;5.07;4.50;;;;;;;;;;5009732;28;20037;-55
2022/01/22 11:43:09;;;;;;;4.60;4.10;;;;;;;;;;5016774;28;20529;-55
2022/01/22 11:45:39;;;;;;;5.68;4.00;;;;;;;;;;5028560;28;20516;-56
2022/01/22 11:48:10;;;;;;;4.05;3.45;;;;;;;;;;5043452;28;20552;-56
2022/01/22 11:50:36;;;;;;;4.32;3.58;;;;;;;;;;5032634;28;20037;-55
2022/01/22 11:53:21;;;;;;;4.25;3.28;;;;;;;;;;5009021;28;20068;-56
2022/01/22 11:56:05;;;;;;;3.97;3.05;;;;;;;;;;5011624;28;20488;-54
2022/01/22 11:58:30;;;;;;;2.85;2.53;;;;;;;;;;5003305;28;20129;-53
2022/01/22 12:00:56;;;;;;;3.27;2.80;;;;;;;;;;5004213;28;20112;-59
2022/01/22 12:03:21;;;;;;;4.93;2.77;;;;;;;;;;5019241;28;20152;-56
2022/01/22 12:05:49;;;;;;;3.60;2.60;;;;;;;;;;5042686;28;20076;-54
2022/01/22 12:08:15;;;;;;;3.30;2.58;;;;;;;;;;5042643;28;20108;-53
2022/01/22 12:10:42;;;;;;;3.78;2.30;;;;;;;;;;4997069;28;20419;-51
2022/01/22 12:16:10;;;;;;;2.80;2.30;;;;;;;;;;5042509;28;20069;-53
2022/01/22 12:18:39;;;;;;;2.67;2.05;;;;;;;;;;5042217;28;20041;-51
2022/01/22 12:23:32;;;;;;;2.78;1.90;;;;;;;;;;5023141;28;20032;-52
2022/01/22 12:25:58;;;;;;;3.07;1.97;;;;;;;;;;5023618;28;20029;-53
2022/01/22 12:28:55;;;;;;;2.70;1.85;;;;;;;;;;5023479;28;20043;-52
2022/01/22 12:31:20;;;;;;;2.38;1.80;;;;;;;;;;4985080;28;20444;-51
2022/01/22 12:33:47;;;;;;;2.73;1.70;;;;;;;;;;5024749;28;20036;-51
2022/01/22 12:36:18;;;;;;;3.42;1.92;;;;;;;;;;5003881;28;20025;-53
2022/01/22 12:38:49;;;;;;;2.88;2.13;;;;;;;;;;5023494;28;20068;-53
2022/01/22 12:41:29;;;;;;;2.40;1.70;;;;;;;;;;5023101;28;20022;-54
2022/01/22 12:44:24;;;;;;;2.72;1.70;;;;;;;;;;5022634;28;20029;-53
2022/01/22 12:46:50;;;;;;;2.33;1.75;;;;;;;;;;5022937;28;20020;-51
2022/01/22 12:49:15;;;;;;;2.95;1.70;;;;;;;;;;5022659;28;20100;-52
2022/01/22 12:51:41;;;;;;;2.63;1.58;;;;;;;;;;5005663;28;20496;-51
2022/01/22 12:54:06;;;;;;;2.33;1.70;;;;;;;;;;5022509;28;20024;-52
2022/01/22 12:59:00;;;;;;;2.95;1.67;;;;;;;;;;5041949;28;20033;-52
2022/01/22 13:01:30;;;;;;;2.28;1.33;;;;;;;;;;5023781;28;20108;-51
2022/01/22 13:03:56;;;;;;;2.15;1.40;;;;;;;;;;5002596;28;20032;-51
2022/01/22 13:06:22;;;;;;;2.53;1.40;;;;;;;;;;5029316;28;20024;-50
2022/01/22 13:08:48;;;;;;;2.75;1.35;;;;;;;;;;5041669;28;20083;-52
2022/01/22 13:11:18;;;;;;;1.90;1.23;;;;;;;;;;5027461;28;20021;-51
2022/01/22 13:13:43;;;;;;;2.00;1.27;;;;;;;;;;5006615;28;20499;-51
2022/01/22 13:16:10;;;;;;;1.90;1.20;;;;;;;;;;5008688;28;20017;-52
2022/01/22 13:18:42;;;;;;;2.15;1.40;;;;;;;;;;5023937;28;20160;-52
2022/01/22 13:21:08;;;;;;;2.30;1.50;;;;;;;;;;5024167;28;20569;-51
2022/01/22 13:23:33;;;;;;;2.97;1.40;;;;;;;;;;5026033;28;20029;-52
2022/01/22 13:25:58;;;;;;;1.98;1.33;;;;;;;;;;5029605;28;20024;-53
2022/01/22 13:28:27;;;;;;;1.43;1.20;;;;;;;;;;5027661;28;20045;-54
2022/01/22 13:30:58;;;;;;;1.58;1.00;;;;;;;;;;5005041;28;20331;-52
2022/01/22 13:34:12;;;;;;;1.58;1.10;;;;;;;;;;5027464;28;20029;-53
2022/01/22 13:49:30;;;;;;;2.20;1.23;;;;;;;;;;5009482;28;20072;-54
2022/01/22 13:51:56;;;;;;;1.48;0.98;;;;;;;;;;5028937;28;20017;-52
2022/01/22 13:54:26;;;;;;;1.90;1.10;;;;;;;;;;5045029;28;20036;-51
2022/01/22 13:56:54;;;;;;;2.17;1.02;;;;;;;;;;5045024;28;20096;-53
2022/01/22 13:59:20;;;;;;;1.75;1.20;;;;;;;;;;5044855;28;20032;-52
2022/01/22 14:02:04;;;;;;;2.23;1.13;;;;;;;;;;5043303;28;20490;-50
2022/01/22 14:04:39;;;;;;;1.73;1.02;;;;;;;;;;5031961;28;20638;-53
2022/01/22 14:07:25;;;;;;;1.83;0.95;;;;;;;;;;5044878;28;20029;-53
2022/01/22 14:09:59;;;;;;;1.35;1.00;;;;;;;;;;5042616;28;20057;-52
2022/01/22 14:12:26;;;;;;;1.38;1.02;;;;;;;;;;5018251;28;20179;-53
2022/01/22 14:14:59;;;;;;;2.15;1.33;;;;;;;;;;5005521;28;20029;-53
2022/01/22 14:17:26;;;;;;;2.05;1.08;;;;;;;;;;5007541;28;20029;-52
2022/01/22 14:20:01;;;;;;;1.58;1.00;;;;;;;;;;5028766;28;20040;-53
2022/01/22 14:22:26;;;;;;;1.95;1.00;;;;;;;;;;5024756;28;20026;-52
2022/01/22 14:25:07;;;;;;;2.27;1.27;;;;;;;;;;4997197;28;20568;-51
2022/01/22 14:27:32;;;;;;;1.70;1.10;;;;;;;;;;4987619;28;20348;-52
2022/01/22 14:29:58;;;;;;;1.57;1.00;;;;;;;;;;5008492;28;20104;-53
2022/01/22 14:32:23;;;;;;;1.83;1.00;;;;;;;;;;5006728;28;20105;-50
2022/01/22 14:34:48;;;;;;;1.57;0.87;;;;;;;;;;5000251;28;20104;-52
2022/01/22 14:37:28;;;;;;;1.40;1.00;;;;;;;;;;5032075;28;20063;-51
2022/01/22 14:45:20;;;;;;;5.28;1.35;;;;;;;;;;5038442;28;20099;-54
2022/01/22 14:47:50;;;;;;;4.80;1.03;;;;;;;;;;5026108;28;20020;-53
2022/01/22 14:50:16;;;;;;;1.48;0.88;;;;;;;;;;5038772;28;20378;-53
2022/01/22 14:52:41;;;;;;;2.40;1.27;;;;;;;;;;5032971;28;20099;-53
2022/01/22 14:55:08;;;;;;;1.58;1.00;;;;;;;;;;5031150;28;20112;-52
2022/01/22 14:57:34;;;;;;;2.15;1.08;;;;;;;;;;5038883;28;20021;-51
2022/01/22 15:00:05;;;;;;;1.92;1.10;;;;;;;;;;5042131;28;20087;-52
2022/01/22 15:02:30;;;;;;;1.83;0.95;;;;;;;;;;5034247;28;20108;-52
2022/01/22 15:04:56;;;;;;;2.20;1.08;;;;;;;;;;5033105;28;20623;-51
2022/01/22 15:07:21;;;;;;;2.88;1.10;;;;;;;;;;5043236;28;20028;-51
2022/01/22 15:09:46;;;;;;;1.70;0.93;;;;;;;;;;5041495;28;20037;-52
2022/01/22 15:12:12;;;;;;;1.60;0.98;;;;;;;;;;5026912;28;20279;-52
2022/01/22 15:14:38;;;;;;;2.53;1.05;;;;;;;;;;5043331;28;21152;-52
2022/01/22 15:19:32;;;;;;;2.40;1.10;;;;;;;;;;5043317;28;20070;-53
2022/01/22 15:21:57;;;;;;;2.63;0.90;;;;;;;;;;5042075;28;20053;-51
2022/01/22 15:24:24;;;;;;;3.10;1.00;;;;;;;;;;5028061;28;20842;-50
2022/01/22 15:26:49;;;;;;;1.90;0.82;;;;;;;;;;5043120;28;20082;-51
2022/01/22 15:29:16;;;;;;;3.47;1.20;;;;;;;;;;5043069;28;20025;-51
2022/01/22 15:32:03;;;;;;;2.08;1.20;;;;;;;;;;5027740;28;20275;-52
2022/01/22 15:36:54;;;;;;;2.15;1.08;;;;;;;;;;5043193;28;20151;-52
2022/01/22 15:39:20;;;;;;;2.70;1.10;;;;;;;;;;5043018;28;20139;-51
2022/01/22 15:41:45;;;;;;;2.17;1.08;;;;;;;;;;5043053;28;20470;-52
2022/01/22 15:44:10;;;;;;;2.20;1.10;;;;;;;;;;5025227;28;20399;-53
2022/01/22 15:46:38;;;;;;;2.30;1.20;;;;;;;;;;5043091;28;20515;-53
2022/01/22 15:49:03;;;;;;;2.53;1.20;;;;;;;;;;5043111;28;20032;-53
2022/01/22 15:51:28;;;;;;;2.60;1.20;;;;;;;;;;5015882;28;20072;-53
2022/01/22 15:53:53;;;;;;;2.97;1.10;;;;;;;;;;5036789;28;20033;-52
2022/01/22 15:56:19;;;;;;;1.60;0.97;;;;;;;;;;5042741;28;20114;-51
2022/01/22 15:58:44;;;;;;;1.92;0.95;;;;;;;;;;5043080;28;20506;-54
2022/01/22 16:01:11;;;;;;;2.90;1.10;;;;;;;;;;5042518;28;20025;-51
2022/01/22 16:03:41;;;;;;;5.43;1.60;;;;;;;;;;5016712;28;20348;-51
2022/01/22 16:06:18;;;;;;;4.93;1.35;;;;;;;;;;5018464;28;20044;-52
2022/01/22 16:08:43;;;;;;;4.32;1.40;;;;;;;;;;5003855;28;20133;-51
2022/01/22 16:11:08;;;;;;;3.93;1.10;;;;;;;;;;5002014;28;20404;-52
2022/01/22 16:13:34;;;;;;;3.80;1.40;;;;;;;;;;5001292;28;20026;-51
2022/01/22 16:16:01;;;;;;;6.33;1.43;;;;;;;;;;5001234;28;20327;-51
2022/01/22 16:18:27;;;;;;;2.75;1.33;;;;;;;;;;4983417;28;20032;-53
2022/01/22 16:20:52;;;;;;;3.17;1.13;;;;;;;;;;5003880;28;20020;-53
2022/01/22 16:23:17;;;;;;;2.70;1.07;;;;;;;;;;5006365;28;20025;-52
2022/01/22 16:25:43;;;;;;;5.57;1.30;;;;;;;;;;5006528;28;20265;-53
2022/01/22 16:28:08;;;;;;;4.73;1.27;;;;;;;;;;5019961;28;20825;-52
2022/01/22 16:30:33;;;;;;;4.43;1.20;;;;;;;;;;5021580;28;20724;-52
2022/01/22 16:32:58;;;;;;;2.57;1.27;;;;;;;;;;5022031;28;20310;-51
2022/01/22 16:35:23;;;;;;;2.73;1.00;;;;;;;;;;5021778;28;20028;-50
2022/01/22 16:37:49;;;;;;;2.80;1.10;;;;;;;;;;5022450;28;20029;-52
2022/01/22 16:40:20;;;;;;;1.90;1.20;;;;;;;;;;5021651;28;20360;-52
2022/01/22 16:42:58;;;;;;;3.63;0.90;;;;;;;;;;5021835;28;20666;-50
2022/01/22 16:54:08;;;;;;;2.67;0.90;;;;;;;;;;5018837;28;20033;-54